sensor_id;sensor_type;location;lat;lon;timestamp;P1;durP1;ratioP1;P2;durP2;ratioP2
77012;SDS011;67260;53.130;17.982;2023-02-28T00:00:50;93.50;;;28.90;;
77012;SDS011;67260;53.130;17.982;2023-02-28T00:03:18;93.40;;;29.80;;
77012;SDS011;67260;53.130;17.982;2023-02-28T00:05:44;69.30;;;24.30;;
77012;SDS011;67260;53.130;17.982;2023-02-28T00:08:11;100.80;;;30.30;;
77012;SDS011;67260;53.130;17.982;2023-02-28T00:10:39;102.20;;;32.30;;
77012;SDS011;67260;53.130;17.982;2023-02-28T00:13:06;104.20;;;31.00;;
77012;SDS011;67260;53.130;17.982;2023-02-28T00:15:33;91.80;;;27.00;;
77012;SDS011;67260;53.130;17.982;2023-02-28T00:18:01;86.90;;;26.50;;
77012;SDS011;67260;53.130;17.982;2023-02-28T00:20:29;85.90;;;26.30;;
77012;SDS011;67260;53.130;17.982;2023-02-28T00:22:56;103.90;;;29.90;;
77012;SDS011;67260;53.130;17.982;2023-02-28T00:25:23;94.60;;;28.80;;
77012;SDS011;67260;53.130;17.982;2023-02-28T00:27:51;98.30;;;28.10;;
77012;SDS011;67260;53.130;17.982;2023-02-28T00:30:22;101.60;;;29.80;;
77012;SDS011;67260;53.130;17.982;2023-02-28T00:32:50;92.30;;;29.70;;
77012;SDS011;67260;53.130;17.982;2023-02-28T00:35:17;100.40;;;29.30;;
77012;SDS011;67260;53.130;17.982;2023-02-28T00:37:44;115.80;;;32.30;;
77012;SDS011;67260;53.130;17.982;2023-02-28T00:40:11;94.40;;;30.20;;
77012;SDS011;67260;53.130;17.982;2023-02-28T00:42:38;88.40;;;28.80;;
77012;SDS011;67260;53.130;17.982;2023-02-28T00:45:06;96.50;;;28.90;;
77012;SDS011;67260;53.130;17.982;2023-02-28T00:47:34;81.10;;;25.80;;
77012;SDS011;67260;53.130;17.982;2023-02-28T00:50:01;72.50;;;25.20;;
77012;SDS011;67260;53.130;17.982;2023-02-28T00:52:28;62.00;;;21.00;;
77012;SDS011;67260;53.130;17.982;2023-02-28T00:54:55;58.90;;;19.10;;
77012;SDS011;67260;53.130;17.982;2023-02-28T00:57:22;42.70;;;16.60;;
77012;SDS011;67260;53.130;17.982;2023-02-28T01:02:15;40.20;;;16.00;;
77012;SDS011;67260;53.130;17.982;2023-02-28T01:04:42;49.90;;;18.60;;
77012;SDS011;67260;53.130;17.982;2023-02-28T01:07:08;57.60;;;20.40;;
77012;SDS011;67260;53.130;17.982;2023-02-28T01:09:35;65.40;;;22.60;;
77012;SDS011;67260;53.130;17.982;2023-02-28T01:12:02;70.50;;;21.90;;
77012;SDS011;67260;53.130;17.982;2023-02-28T01:14:29;67.00;;;20.40;;
77012;SDS011;67260;53.130;17.982;2023-02-28T01:16:55;51.40;;;16.00;;
77012;SDS011;67260;53.130;17.982;2023-02-28T01:19:22;50.80;;;16.10;;
77012;SDS011;67260;53.130;17.982;2023-02-28T01:21:48;47.80;;;15.80;;
77012;SDS011;67260;53.130;17.982;2023-02-28T01:24:15;54.80;;;17.00;;
77012;SDS011;67260;53.130;17.982;2023-02-28T01:26:42;55.00;;;17.60;;
77012;SDS011;67260;53.130;17.982;2023-02-28T01:29:08;53.20;;;17.30;;
77012;SDS011;67260;53.130;17.982;2023-02-28T01:31:35;54.30;;;17.20;;
77012;SDS011;67260;53.130;17.982;2023-02-28T01:34:02;56.90;;;17.60;;
77012;SDS011;67260;53.130;17.982;2023-02-28T01:36:29;58.40;;;18.80;;
77012;SDS011;67260;53.130;17.982;2023-02-28T01:38:56;51.50;;;15.80;;
77012;SDS011;67260;53.130;17.982;2023-02-28T01:41:24;47.90;;;14.50;;
77012;SDS011;67260;53.130;17.982;2023-02-28T01:43:54;49.70;;;15.50;;
77012;SDS011;67260;53.130;17.982;2023-02-28T01:46:21;46.30;;;14.60;;
77012;SDS011;67260;53.130;17.982;2023-02-28T01:48:52;31.10;;;12.80;;
77012;SDS011;67260;53.130;17.982;2023-02-28T01:51:29;39.70;;;14.30;;
77012;SDS011;67260;53.130;17.982;2023-02-28T01:53:59;39.90;;;13.70;;
77012;SDS011;67260;53.130;17.982;2023-02-28T01:56:30;44.50;;;15.20;;
77012;SDS011;67260;53.130;17.982;2023-02-28T01:59:00;37.90;;;14.10;;
77012;SDS011;67260;53.130;17.982;2023-02-28T02:01:28;31.20;;;12.00;;
77012;SDS011;67260;53.130;17.982;2023-02-28T02:03:57;43.70;;;14.50;;
77012;SDS011;67260;53.130;17.982;2023-02-28T02:06:29;44.20;;;14.00;;
77012;SDS011;67260;53.130;17.982;2023-02-28T02:09:00;34.40;;;12.60;;
77012;SDS011;67260;53.130;17.982;2023-02-28T02:11:27;40.60;;;12.60;;
77012;SDS011;67260;53.130;17.982;2023-02-28T02:25:26;35.60;;;11.70;;
77012;SDS011;67260;53.130;17.982;2023-02-28T02:31:12;27.60;;;9.90;;
77012;SDS011;67260;53.130;17.982;2023-02-28T02:40:04;34.40;;;12.30;;
77012;SDS011;67260;53.130;17.982;2023-02-28T02:45:39;17.50;;;7.10;;
77012;SDS011;67260;53.130;17.982;2023-02-28T02:48:11;21.10;;;8.40;;
77012;SDS011;67260;53.130;17.982;2023-02-28T02:50:46;29.10;;;10.10;;
77012;SDS011;67260;53.130;17.982;2023-02-28T02:53:17;28.40;;;10.30;;
77012;SDS011;67260;53.130;17.982;2023-02-28T02:55:48;26.00;;;9.70;;
77012;SDS011;67260;53.130;17.982;2023-02-28T02:58:22;20.70;;;8.20;;
77012;SDS011;67260;53.130;17.982;2023-02-28T03:00:57;33.60;;;12.50;;
77012;SDS011;67260;53.130;17.982;2023-02-28T03:03:27;32.20;;;11.60;;
77012;SDS011;67260;53.130;17.982;2023-02-28T03:05:57;31.80;;;12.20;;
77012;SDS011;67260;53.130;17.982;2023-02-28T03:08:25;42.40;;;14.30;;
77012;SDS011;67260;53.130;17.982;2023-02-28T03:10:57;54.50;;;17.90;;
77012;SDS011;67260;53.130;17.982;2023-02-28T03:13:42;95.30;;;25.90;;
77012;SDS011;67260;53.130;17.982;2023-02-28T03:21:45;48.20;;;14.90;;
77012;SDS011;67260;53.130;17.982;2023-02-28T03:24:59;45.90;;;13.30;;
77012;SDS011;67260;53.130;17.982;2023-02-28T03:30:23;38.60;;;12.30;;
77012;SDS011;67260;53.130;17.982;2023-02-28T03:32:57;34.00;;;12.70;;
77012;SDS011;67260;53.130;17.982;2023-02-28T03:35:32;30.10;;;10.60;;
77012;SDS011;67260;53.130;17.982;2023-02-28T03:38:51;31.40;;;10.30;;
77012;SDS011;67260;53.130;17.982;2023-02-28T03:41:14;23.30;;;9.00;;
77012;SDS011;67260;53.130;17.982;2023-02-28T03:43:49;24.70;;;9.40;;
77012;SDS011;67260;53.130;17.982;2023-02-28T03:46:22;24.10;;;8.70;;
77012;SDS011;67260;53.130;17.982;2023-02-28T03:48:56;32.30;;;12.00;;
77012;SDS011;67260;53.130;17.982;2023-02-28T03:51:29;35.50;;;12.90;;
77012;SDS011;67260;53.130;17.982;2023-02-28T03:53:59;39.20;;;11.70;;
77012;SDS011;67260;53.130;17.982;2023-02-28T03:56:34;36.40;;;12.50;;
77012;SDS011;67260;53.130;17.982;2023-02-28T03:59:17;30.80;;;10.40;;
77012;SDS011;67260;53.130;17.982;2023-02-28T04:01:46;28.00;;;10.00;;
77012;SDS011;67260;53.130;17.982;2023-02-28T04:04:15;32.50;;;10.60;;
77012;SDS011;67260;53.130;17.982;2023-02-28T04:06:43;26.40;;;9.50;;
77012;SDS011;67260;53.130;17.982;2023-02-28T04:09:13;28.10;;;9.80;;
77012;SDS011;67260;53.130;17.982;2023-02-28T04:11:44;30.80;;;10.60;;
77012;SDS011;67260;53.130;17.982;2023-02-28T04:14:15;32.00;;;10.80;;
77012;SDS011;67260;53.130;17.982;2023-02-28T04:16:42;29.50;;;10.80;;
77012;SDS011;67260;53.130;17.982;2023-02-28T04:19:09;34.00;;;11.70;;
77012;SDS011;67260;53.130;17.982;2023-02-28T04:21:39;28.50;;;10.60;;
77012;SDS011;67260;53.130;17.982;2023-02-28T04:24:11;28.30;;;10.00;;
77012;SDS011;67260;53.130;17.982;2023-02-28T04:26:44;26.00;;;9.70;;
77012;SDS011;67260;53.130;17.982;2023-02-28T04:29:13;26.60;;;10.30;;
77012;SDS011;67260;53.130;17.982;2023-02-28T04:31:44;18.80;;;8.60;;
77012;SDS011;67260;53.130;17.982;2023-02-28T04:34:11;23.50;;;9.40;;
77012;SDS011;67260;53.130;17.982;2023-02-28T04:39:04;20.50;;;10.10;;
77012;SDS011;67260;53.130;17.982;2023-02-28T04:41:31;24.30;;;11.40;;
77012;SDS011;67260;53.130;17.982;2023-02-28T04:43:58;18.70;;;7.10;;
77012;SDS011;67260;53.130;17.982;2023-02-28T04:46:25;27.70;;;11.00;;
77012;SDS011;67260;53.130;17.982;2023-02-28T04:48:51;17.80;;;7.20;;
77012;SDS011;67260;53.130;17.982;2023-02-28T04:51:20;30.20;;;11.00;;
77012;SDS011;67260;53.130;17.982;2023-02-28T04:53:47;29.10;;;10.70;;
77012;SDS011;67260;53.130;17.982;2023-02-28T04:56:16;22.20;;;9.10;;
77012;SDS011;67260;53.130;17.982;2023-02-28T04:58:43;28.20;;;10.00;;
77012;SDS011;67260;53.130;17.982;2023-02-28T05:01:21;28.20;;;10.60;;
77012;SDS011;67260;53.130;17.982;2023-02-28T05:03:51;27.90;;;10.10;;
77012;SDS011;67260;53.130;17.982;2023-02-28T05:06:19;26.30;;;9.30;;
77012;SDS011;67260;53.130;17.982;2023-02-28T05:08:46;28.40;;;11.90;;
77012;SDS011;67260;53.130;17.982;2023-02-28T05:11:18;33.20;;;11.90;;
77012;SDS011;67260;53.130;17.982;2023-02-28T05:13:47;28.80;;;10.90;;
77012;SDS011;67260;53.130;17.982;2023-02-28T05:16:15;31.60;;;10.90;;
77012;SDS011;67260;53.130;17.982;2023-02-28T05:18:42;28.20;;;9.80;;
77012;SDS011;67260;53.130;17.982;2023-02-28T05:21:29;39.50;;;14.50;;
77012;SDS011;67260;53.130;17.982;2023-02-28T05:24:01;42.50;;;13.90;;
77012;SDS011;67260;53.130;17.982;2023-02-28T05:26:30;35.70;;;12.60;;
77012;SDS011;67260;53.130;17.982;2023-02-28T05:29:00;39.50;;;16.00;;
77012;SDS011;67260;53.130;17.982;2023-02-28T05:31:26;32.70;;;12.40;;
77012;SDS011;67260;53.130;17.982;2023-02-28T05:33:53;24.50;;;9.90;;
77012;SDS011;67260;53.130;17.982;2023-02-28T05:36:20;34.20;;;13.40;;
77012;SDS011;67260;53.130;17.982;2023-02-28T05:38:48;35.50;;;12.40;;
77012;SDS011;67260;53.130;17.982;2023-02-28T05:41:15;29.10;;;11.30;;
77012;SDS011;67260;53.130;17.982;2023-02-28T05:43:43;22.90;;;8.50;;
77012;SDS011;67260;53.130;17.982;2023-02-28T05:46:11;31.80;;;11.00;;
77012;SDS011;67260;53.130;17.982;2023-02-28T05:48:39;43.80;;;14.70;;
77012;SDS011;67260;53.130;17.982;2023-02-28T05:51:08;45.80;;;15.60;;
77012;SDS011;67260;53.130;17.982;2023-02-28T05:53:35;40.50;;;12.90;;
77012;SDS011;67260;53.130;17.982;2023-02-28T05:58:29;42.90;;;15.60;;
77012;SDS011;67260;53.130;17.982;2023-02-28T06:01:00;44.70;;;14.50;;
77012;SDS011;67260;53.130;17.982;2023-02-28T06:03:45;39.40;;;12.70;;
77012;SDS011;67260;53.130;17.982;2023-02-28T06:06:12;50.40;;;15.50;;
77012;SDS011;67260;53.130;17.982;2023-02-28T06:08:38;45.80;;;16.40;;
77012;SDS011;67260;53.130;17.982;2023-02-28T06:11:05;49.00;;;16.70;;
77012;SDS011;67260;53.130;17.982;2023-02-28T06:13:33;42.00;;;15.90;;
77012;SDS011;67260;53.130;17.982;2023-02-28T06:16:03;49.10;;;16.70;;
77012;SDS011;67260;53.130;17.982;2023-02-28T06:18:30;45.70;;;17.80;;
77012;SDS011;67260;53.130;17.982;2023-02-28T06:20:57;42.00;;;16.70;;
77012;SDS011;67260;53.130;17.982;2023-02-28T06:23:24;34.60;;;15.70;;
77012;SDS011;67260;53.130;17.982;2023-02-28T06:25:50;27.90;;;12.50;;
77012;SDS011;67260;53.130;17.982;2023-02-28T06:28:19;31.60;;;13.20;;
77012;SDS011;67260;53.130;17.982;2023-02-28T06:30:45;43.00;;;17.10;;
77012;SDS011;67260;53.130;17.982;2023-02-28T06:33:12;33.20;;;14.60;;
77012;SDS011;67260;53.130;17.982;2023-02-28T06:35:39;34.10;;;13.20;;
77012;SDS011;67260;53.130;17.982;2023-02-28T06:38:06;62.70;;;20.90;;
77012;SDS011;67260;53.130;17.982;2023-02-28T06:40:32;65.40;;;22.20;;
77012;SDS011;67260;53.130;17.982;2023-02-28T06:43:01;63.70;;;23.10;;
77012;SDS011;67260;53.130;17.982;2023-02-28T06:45:28;60.10;;;21.70;;
77012;SDS011;67260;53.130;17.982;2023-02-28T06:47:55;51.50;;;18.00;;
77012;SDS011;67260;53.130;17.982;2023-02-28T06:50:22;50.60;;;18.10;;
77012;SDS011;67260;53.130;17.982;2023-02-28T06:52:49;27.40;;;10.60;;
77012;SDS011;67260;53.130;17.982;2023-02-28T06:55:20;38.20;;;13.50;;
77012;SDS011;67260;53.130;17.982;2023-02-28T06:57:46;32.20;;;11.90;;
77012;SDS011;67260;53.130;17.982;2023-02-28T07:00:13;43.30;;;16.10;;
77012;SDS011;67260;53.130;17.982;2023-02-28T07:02:41;50.10;;;19.60;;
77012;SDS011;67260;53.130;17.982;2023-02-28T07:05:07;47.90;;;17.00;;
77012;SDS011;67260;53.130;17.982;2023-02-28T07:07:34;38.40;;;15.80;;
77012;SDS011;67260;53.130;17.982;2023-02-28T07:10:04;42.50;;;17.50;;
77012;SDS011;67260;53.130;17.982;2023-02-28T07:12:31;45.80;;;16.00;;
77012;SDS011;67260;53.130;17.982;2023-02-28T07:14:58;38.80;;;15.40;;
77012;SDS011;67260;53.130;17.982;2023-02-28T07:17:25;34.80;;;13.80;;
77012;SDS011;67260;53.130;17.982;2023-02-28T07:19:52;34.30;;;13.60;;
77012;SDS011;67260;53.130;17.982;2023-02-28T07:22:18;39.00;;;14.70;;
77012;SDS011;67260;53.130;17.982;2023-02-28T07:24:45;43.60;;;16.70;;
77012;SDS011;67260;53.130;17.982;2023-02-28T07:27:12;40.50;;;16.60;;
77012;SDS011;67260;53.130;17.982;2023-02-28T07:29:38;41.10;;;15.70;;
77012;SDS011;67260;53.130;17.982;2023-02-28T07:32:05;46.00;;;17.10;;
77012;SDS011;67260;53.130;17.982;2023-02-28T07:34:32;41.00;;;14.60;;
77012;SDS011;67260;53.130;17.982;2023-02-28T07:36:58;38.60;;;14.80;;
77012;SDS011;67260;53.130;17.982;2023-02-28T07:39:26;33.60;;;14.10;;
77012;SDS011;67260;53.130;17.982;2023-02-28T07:41:52;32.80;;;13.80;;
77012;SDS011;67260;53.130;17.982;2023-02-28T07:44:22;34.10;;;13.20;;
77012;SDS011;67260;53.130;17.982;2023-02-28T07:49:16;39.70;;;14.30;;
77012;SDS011;67260;53.130;17.982;2023-02-28T07:51:43;41.20;;;13.80;;
77012;SDS011;67260;53.130;17.982;2023-02-28T07:54:09;18.00;;;8.60;;
77012;SDS011;67260;53.130;17.982;2023-02-28T07:56:36;32.90;;;12.20;;
77012;SDS011;67260;53.130;17.982;2023-02-28T07:59:03;38.00;;;14.60;;
77012;SDS011;67260;53.130;17.982;2023-02-28T08:01:29;30.10;;;13.60;;
77012;SDS011;67260;53.130;17.982;2023-02-28T08:06:23;31.70;;;14.30;;
77012;SDS011;67260;53.130;17.982;2023-02-28T08:08:52;28.60;;;12.10;;
77012;SDS011;67260;53.130;17.982;2023-02-28T08:11:19;35.50;;;14.70;;
77012;SDS011;67260;53.130;17.982;2023-02-28T08:13:46;39.50;;;15.70;;
77012;SDS011;67260;53.130;17.982;2023-02-28T08:16:13;39.10;;;15.20;;
77012;SDS011;67260;53.130;17.982;2023-02-28T08:18:43;39.40;;;15.40;;
77012;SDS011;67260;53.130;17.982;2023-02-28T08:21:10;37.90;;;15.10;;
77012;SDS011;67260;53.130;17.982;2023-02-28T08:23:38;38.40;;;15.40;;
77012;SDS011;67260;53.130;17.982;2023-02-28T08:26:04;38.60;;;16.20;;
77012;SDS011;67260;53.130;17.982;2023-02-28T08:28:31;39.90;;;15.20;;
77012;SDS011;67260;53.130;17.982;2023-02-28T08:30:59;37.20;;;15.50;;
77012;SDS011;67260;53.130;17.982;2023-02-28T08:33:26;28.90;;;11.70;;
77012;SDS011;67260;53.130;17.982;2023-02-28T08:35:57;40.80;;;16.40;;
77012;SDS011;67260;53.130;17.982;2023-02-28T08:38:24;39.20;;;15.50;;
77012;SDS011;67260;53.130;17.982;2023-02-28T08:43:23;26.20;;;11.60;;
77012;SDS011;67260;53.130;17.982;2023-02-28T08:45:53;25.80;;;10.10;;
77012;SDS011;67260;53.130;17.982;2023-02-28T08:48:24;31.70;;;13.40;;
77012;SDS011;67260;53.130;17.982;2023-02-28T08:50:58;35.30;;;14.00;;
77012;SDS011;67260;53.130;17.982;2023-02-28T08:53:27;28.70;;;11.90;;
77012;SDS011;67260;53.130;17.982;2023-02-28T08:55:58;26.20;;;10.80;;
77012;SDS011;67260;53.130;17.982;2023-02-28T08:58:28;30.70;;;12.50;;
77012;SDS011;67260;53.130;17.982;2023-02-28T09:00:55;22.40;;;10.00;;
77012;SDS011;67260;53.130;17.982;2023-02-28T09:03:22;24.90;;;10.00;;
77012;SDS011;67260;53.130;17.982;2023-02-28T09:05:56;18.50;;;7.70;;
77012;SDS011;67260;53.130;17.982;2023-02-28T09:08:26;22.70;;;9.20;;
77012;SDS011;67260;53.130;17.982;2023-02-28T09:10:56;19.00;;;7.50;;
77012;SDS011;67260;53.130;17.982;2023-02-28T09:13:24;18.00;;;7.10;;
77012;SDS011;67260;53.130;17.982;2023-02-28T09:15:52;14.90;;;6.30;;
77012;SDS011;67260;53.130;17.982;2023-02-28T09:18:20;17.90;;;7.30;;
77012;SDS011;67260;53.130;17.982;2023-02-28T09:20:47;13.70;;;6.20;;
77012;SDS011;67260;53.130;17.982;2023-02-28T09:23:13;14.90;;;7.10;;
77012;SDS011;67260;53.130;17.982;2023-02-28T09:25:46;15.20;;;6.20;;
77012;SDS011;67260;53.130;17.982;2023-02-28T09:28:16;12.10;;;4.90;;
77012;SDS011;67260;53.130;17.982;2023-02-28T09:30:44;12.10;;;4.70;;
77012;SDS011;67260;53.130;17.982;2023-02-28T09:33:12;9.90;;;4.10;;
77012;SDS011;67260;53.130;17.982;2023-02-28T09:35:40;11.90;;;4.80;;
77012;SDS011;67260;53.130;17.982;2023-02-28T09:38:06;9.50;;;4.70;;
77012;SDS011;67260;53.130;17.982;2023-02-28T09:40:37;11.40;;;4.90;;
77012;SDS011;67260;53.130;17.982;2023-02-28T09:43:14;8.50;;;3.40;;
77012;SDS011;67260;53.130;17.982;2023-02-28T09:45:46;8.30;;;3.70;;
77012;SDS011;67260;53.130;17.982;2023-02-28T09:48:20;11.60;;;4.60;;
77012;SDS011;67260;53.130;17.982;2023-02-28T09:50:52;8.30;;;3.50;;
77012;SDS011;67260;53.130;17.982;2023-02-28T09:53:34;9.00;;;3.50;;
77012;SDS011;67260;53.130;17.982;2023-02-28T09:56:07;8.50;;;3.90;;
77012;SDS011;67260;53.130;17.982;2023-02-28T10:01:59;10.90;;;4.40;;
77012;SDS011;67260;53.130;17.982;2023-02-28T10:04:50;10.20;;;4.10;;
77012;SDS011;67260;53.130;17.982;2023-02-28T10:07:25;10.60;;;4.20;;
77012;SDS011;67260;53.130;17.982;2023-02-28T10:09:58;10.00;;;3.50;;
77012;SDS011;67260;53.130;17.982;2023-02-28T10:14:58;9.80;;;3.50;;
77012;SDS011;67260;53.130;17.982;2023-02-28T10:17:32;9.70;;;3.60;;
77012;SDS011;67260;53.130;17.982;2023-02-28T10:20:07;8.90;;;3.30;;
77012;SDS011;67260;53.130;17.982;2023-02-28T10:25:22;7.10;;;3.20;;
77012;SDS011;67260;53.130;17.982;2023-02-28T10:27:59;6.50;;;2.80;;
77012;SDS011;67260;53.130;17.982;2023-02-28T10:30:31;9.30;;;3.60;;
77012;SDS011;67260;53.130;17.982;2023-02-28T10:35:25;8.60;;;3.10;;
77012;SDS011;67260;53.130;17.982;2023-02-28T10:37:54;7.50;;;3.50;;
77012;SDS011;67260;53.130;17.982;2023-02-28T10:45:24;12.70;;;5.70;;
77012;SDS011;67260;53.130;17.982;2023-02-28T10:48:03;14.20;;;4.00;;
77012;SDS011;67260;53.130;17.982;2023-02-28T10:53:24;6.30;;;2.50;;
77012;SDS011;67260;53.130;17.982;2023-02-28T10:56:03;7.00;;;2.80;;
77012;SDS011;67260;53.130;17.982;2023-02-28T11:01:50;10.60;;;3.60;;
77012;SDS011;67260;53.130;17.982;2023-02-28T11:04:31;8.90;;;2.90;;
77012;SDS011;67260;53.130;17.982;2023-02-28T11:07:03;7.40;;;3.40;;
77012;SDS011;67260;53.130;17.982;2023-02-28T11:09:38;5.60;;;2.00;;
77012;SDS011;67260;53.130;17.982;2023-02-28T11:12:07;9.30;;;3.80;;
77012;SDS011;67260;53.130;17.982;2023-02-28T11:14:55;9.10;;;3.60;;
77012;SDS011;67260;53.130;17.982;2023-02-28T11:17:52;26.50;;;9.10;;
77012;SDS011;67260;53.130;17.982;2023-02-28T11:20:21;13.40;;;5.60;;
77012;SDS011;67260;53.130;17.982;2023-02-28T11:22:51;35.10;;;15.30;;
77012;SDS011;67260;53.130;17.982;2023-02-28T11:25:22;10.10;;;4.40;;
77012;SDS011;67260;53.130;17.982;2023-02-28T11:27:53;13.50;;;6.40;;
77012;SDS011;67260;53.130;17.982;2023-02-28T11:30:29;11.40;;;5.00;;
77012;SDS011;67260;53.130;17.982;2023-02-28T11:33:01;8.30;;;3.60;;
77012;SDS011;67260;53.130;17.982;2023-02-28T11:35:49;9.70;;;3.90;;
77012;SDS011;67260;53.130;17.982;2023-02-28T11:38:16;11.80;;;5.10;;
77012;SDS011;67260;53.130;17.982;2023-02-28T11:43:29;7.00;;;3.10;;
77012;SDS011;67260;53.130;17.982;2023-02-28T11:51:47;7.40;;;2.90;;
77012;SDS011;67260;53.130;17.982;2023-02-28T11:54:24;8.70;;;3.00;;
77012;SDS011;67260;53.130;17.982;2023-02-28T11:56:59;7.90;;;3.00;;
77012;SDS011;67260;53.130;17.982;2023-02-28T12:02:50;6.70;;;2.90;;
77012;SDS011;67260;53.130;17.982;2023-02-28T12:05:43;5.80;;;2.30;;
77012;SDS011;67260;53.130;17.982;2023-02-28T12:16:45;10.70;;;4.40;;
77012;SDS011;67260;53.130;17.982;2023-02-28T12:19:22;13.70;;;5.00;;
77012;SDS011;67260;53.130;17.982;2023-02-28T12:27:40;7.20;;;2.40;;
77012;SDS011;67260;53.130;17.982;2023-02-28T12:30:14;7.10;;;3.00;;
77012;SDS011;67260;53.130;17.982;2023-02-28T12:32:47;6.60;;;2.70;;
77012;SDS011;67260;53.130;17.982;2023-02-28T12:35:21;7.60;;;2.50;;
77012;SDS011;67260;53.130;17.982;2023-02-28T12:41:01;8.70;;;3.10;;
77012;SDS011;67260;53.130;17.982;2023-02-28T12:43:31;11.10;;;4.30;;
77012;SDS011;67260;53.130;17.982;2023-02-28T12:46:44;16.80;;;6.30;;
77012;SDS011;67260;53.130;17.982;2023-02-28T12:48:59;34.00;;;12.80;;
77012;SDS011;67260;53.130;17.982;2023-02-28T12:51:30;17.20;;;6.10;;
77012;SDS011;67260;53.130;17.982;2023-02-28T12:56:47;7.50;;;3.40;;
77012;SDS011;67260;53.130;17.982;2023-02-28T12:59:29;6.90;;;3.00;;
77012;SDS011;67260;53.130;17.982;2023-02-28T13:04:42;6.20;;;2.70;;
77012;SDS011;67260;53.130;17.982;2023-02-28T13:09:51;9.50;;;3.00;;
77012;SDS011;67260;53.130;17.982;2023-02-28T13:12:19;7.00;;;2.70;;
77012;SDS011;67260;53.130;17.982;2023-02-28T13:14:46;5.90;;;2.50;;
77012;SDS011;67260;53.130;17.982;2023-02-28T13:17:17;5.70;;;2.50;;
77012;SDS011;67260;53.130;17.982;2023-02-28T13:19:55;6.60;;;2.50;;
77012;SDS011;67260;53.130;17.982;2023-02-28T13:24:52;7.70;;;2.70;;
77012;SDS011;67260;53.130;17.982;2023-02-28T13:27:24;7.20;;;3.20;;
77012;SDS011;67260;53.130;17.982;2023-02-28T13:30:59;6.30;;;2.50;;
77012;SDS011;67260;53.130;17.982;2023-02-28T13:33:19;6.70;;;2.90;;
77012;SDS011;67260;53.130;17.982;2023-02-28T13:38:52;6.90;;;2.70;;
77012;SDS011;67260;53.130;17.982;2023-02-28T13:51:49;4.40;;;1.70;;
77012;SDS011;67260;53.130;17.982;2023-02-28T14:03:26;5.10;;;2.30;;
77012;SDS011;67260;53.130;17.982;2023-02-28T14:06:15;5.50;;;2.30;;
77012;SDS011;67260;53.130;17.982;2023-02-28T14:09:16;7.10;;;3.10;;
77012;SDS011;67260;53.130;17.982;2023-02-28T14:11:50;9.30;;;3.20;;
77012;SDS011;67260;53.130;17.982;2023-02-28T14:17:14;5.10;;;2.40;;
77012;SDS011;67260;53.130;17.982;2023-02-28T14:19:45;8.00;;;3.30;;
77012;SDS011;67260;53.130;17.982;2023-02-28T14:22:22;7.80;;;3.50;;
77012;SDS011;67260;53.130;17.982;2023-02-28T14:25:15;12.20;;;5.10;;
77012;SDS011;67260;53.130;17.982;2023-02-28T14:31:24;8.10;;;3.50;;
77012;SDS011;67260;53.130;17.982;2023-02-28T14:36:43;9.90;;;4.00;;
77012;SDS011;67260;53.130;17.982;2023-02-28T14:39:15;6.90;;;3.10;;
77012;SDS011;67260;53.130;17.982;2023-02-28T14:41:45;6.20;;;2.70;;
77012;SDS011;67260;53.130;17.982;2023-02-28T14:44:22;6.60;;;3.00;;
77012;SDS011;67260;53.130;17.982;2023-02-28T14:46:58;6.00;;;2.60;;
77012;SDS011;67260;53.130;17.982;2023-02-28T14:49:41;6.90;;;3.10;;
77012;SDS011;67260;53.130;17.982;2023-02-28T14:52:12;6.90;;;3.00;;
77012;SDS011;67260;53.130;17.982;2023-02-28T14:54:44;7.40;;;3.20;;
77012;SDS011;67260;53.130;17.982;2023-02-28T14:57:25;7.90;;;3.90;;
77012;SDS011;67260;53.130;17.982;2023-02-28T14:59:58;6.90;;;3.00;;
77012;SDS011;67260;53.130;17.982;2023-02-28T15:02:33;10.40;;;3.40;;
77012;SDS011;67260;53.130;17.982;2023-02-28T15:05:10;9.00;;;3.60;;
77012;SDS011;67260;53.130;17.982;2023-02-28T15:08:06;5.50;;;2.50;;
77012;SDS011;67260;53.130;17.982;2023-02-28T15:11:01;7.30;;;2.70;;
77012;SDS011;67260;53.130;17.982;2023-02-28T15:13:52;6.30;;;2.80;;
77012;SDS011;67260;53.130;17.982;2023-02-28T15:19:01;6.20;;;2.40;;
77012;SDS011;67260;53.130;17.982;2023-02-28T15:21:33;7.90;;;3.10;;
77012;SDS011;67260;53.130;17.982;2023-02-28T15:24:20;6.70;;;2.80;;
77012;SDS011;67260;53.130;17.982;2023-02-28T15:26:54;6.00;;;2.40;;
77012;SDS011;67260;53.130;17.982;2023-02-28T15:29:30;7.30;;;3.00;;
77012;SDS011;67260;53.130;17.982;2023-02-28T15:32:04;6.70;;;2.60;;
77012;SDS011;67260;53.130;17.982;2023-02-28T15:34:37;7.20;;;3.10;;
77012;SDS011;67260;53.130;17.982;2023-02-28T15:39:53;7.40;;;2.90;;
77012;SDS011;67260;53.130;17.982;2023-02-28T15:42:22;8.20;;;2.90;;
77012;SDS011;67260;53.130;17.982;2023-02-28T15:44:54;7.00;;;3.10;;
77012;SDS011;67260;53.130;17.982;2023-02-28T15:47:22;10.90;;;4.20;;
77012;SDS011;67260;53.130;17.982;2023-02-28T15:49:53;10.60;;;3.90;;
77012;SDS011;67260;53.130;17.982;2023-02-28T15:52:39;10.00;;;3.90;;
77012;SDS011;67260;53.130;17.982;2023-02-28T15:55:27;10.00;;;4.40;;
77012;SDS011;67260;53.130;17.982;2023-02-28T15:57:56;10.10;;;4.40;;
77012;SDS011;67260;53.130;17.982;2023-02-28T16:00:27;13.40;;;4.60;;
77012;SDS011;67260;53.130;17.982;2023-02-28T16:02:55;17.30;;;5.70;;
77012;SDS011;67260;53.130;17.982;2023-02-28T16:05:24;10.00;;;3.80;;
77012;SDS011;67260;53.130;17.982;2023-02-28T16:08:00;7.60;;;2.70;;
77012;SDS011;67260;53.130;17.982;2023-02-28T16:10:36;13.40;;;5.40;;
77012;SDS011;67260;53.130;17.982;2023-02-28T16:13:03;19.90;;;7.30;;
77012;SDS011;67260;53.130;17.982;2023-02-28T16:15:31;13.70;;;6.10;;
77012;SDS011;67260;53.130;17.982;2023-02-28T16:18:08;17.90;;;6.00;;
77012;SDS011;67260;53.130;17.982;2023-02-28T16:20:37;23.90;;;7.90;;
77012;SDS011;67260;53.130;17.982;2023-02-28T16:23:05;29.30;;;11.30;;
77012;SDS011;67260;53.130;17.982;2023-02-28T16:25:33;36.20;;;14.20;;
77012;SDS011;67260;53.130;17.982;2023-02-28T16:28:12;26.20;;;10.30;;
77012;SDS011;67260;53.130;17.982;2023-02-28T16:30:52;33.60;;;12.20;;
77012;SDS011;67260;53.130;17.982;2023-02-28T16:33:19;26.30;;;10.80;;
77012;SDS011;67260;53.130;17.982;2023-02-28T16:38:12;27.30;;;10.00;;
77012;SDS011;67260;53.130;17.982;2023-02-28T16:40:38;26.20;;;9.80;;
77012;SDS011;67260;53.130;17.982;2023-02-28T16:43:07;29.00;;;10.80;;
77012;SDS011;67260;53.130;17.982;2023-02-28T16:45:39;39.60;;;13.50;;
77012;SDS011;67260;53.130;17.982;2023-02-28T16:50:37;104.30;;;44.80;;
77012;SDS011;67260;53.130;17.982;2023-02-28T16:53:04;49.60;;;20.40;;
77012;SDS011;67260;53.130;17.982;2023-02-28T16:55:31;42.40;;;18.10;;
77012;SDS011;67260;53.130;17.982;2023-02-28T16:57:58;39.00;;;18.00;;
77012;SDS011;67260;53.130;17.982;2023-02-28T17:00:27;36.90;;;14.60;;
77012;SDS011;67260;53.130;17.982;2023-02-28T17:02:56;40.60;;;16.10;;
77012;SDS011;67260;53.130;17.982;2023-02-28T17:05:23;47.80;;;17.30;;
77012;SDS011;67260;53.130;17.982;2023-02-28T17:12:45;48.80;;;19.50;;
77012;SDS011;67260;53.130;17.982;2023-02-28T17:15:13;43.30;;;17.30;;